GMFO/OUD METAR and TAF weather

Enter ICAO airport designator
Station Type Date Time Source
GMFO METAR 2019/02/21 15:00 UTC NOAA

GMFO 211500Z 33012KT CAVOK 18/09 Q1026 NOSIG


Station Type Date Time Source
GMFO Decoded METAR 2019/02/21 15:00 UTC NOAA

Oujda, Morocco (GMFO) 34-47N 001-56W 470M
Feb 21, 2019 - 10:00 AM EST / 2019.02.21 1500 UTC
Wind: from the NNW (330 degrees) at 14 MPH (12 KT):0
Visibility: greater than 7 mile(s):0
Temperature: 64 F (18 C)
Dew Point: 48 F (9 C)
Relative Humidity: 55%
Pressure (altimeter): 30.30 in. Hg (1026 hPa)
ob: GMFO 211500Z 33012KT CAVOK 18/09 Q1026 NOSIG
cycle: 15

Station Type Date Time Source
GMFO TAF 2019/02/21 12:51 UTC NOAA

TAF GMFO 211100Z 2112/2218 36012KT CAVOK PROB30
TEMPO 2120/2204 VRB02KT 2000 BR SCT006
BECMG 2205/2208 20010KT 8000 NSC


Example: see airport list